sensor_id;sensor_type;location;lat;lon;timestamp;pressure;altitude;pressure_sealevel;temperature;humidity
31717;BME280;18301;51.076;17.046;2022-12-18T00:01:47;101801.69;;;-2.28;76.31
31717;BME280;18301;51.076;17.046;2022-12-18T00:06:50;101810.38;;;-2.83;77.38
31717;BME280;18301;51.076;17.046;2022-12-18T00:11:51;101812.16;;;-2.80;77.22
31717;BME280;18301;51.076;17.046;2022-12-18T00:16:53;101812.22;;;-2.68;77.16
31717;BME280;18301;51.076;17.046;2022-12-18T00:21:54;101816.50;;;-2.93;77.37
31717;BME280;18301;51.076;17.046;2022-12-18T00:26:56;101814.81;;;-2.74;77.48
31717;BME280;18301;51.076;17.046;2022-12-18T00:31:57;101819.31;;;-2.48;77.26
31717;BME280;18301;51.076;17.046;2022-12-18T00:36:59;101835.94;;;-2.75;77.32
31717;BME280;18301;51.076;17.046;2022-12-18T00:42:00;101833.34;;;-2.56;77.39
31717;BME280;18301;51.076;17.046;2022-12-18T00:47:20;101835.16;;;-2.48;77.65
31717;BME280;18301;51.076;17.046;2022-12-18T00:52:22;101847.50;;;-2.47;77.07
31717;BME280;18301;51.076;17.046;2022-12-18T00:57:23;101865.06;;;-2.59;77.51
31717;BME280;18301;51.076;17.046;2022-12-18T01:02:25;101865.97;;;-2.58;77.08
31717;BME280;18301;51.076;17.046;2022-12-18T01:07:26;101886.28;;;-2.40;76.89
31717;BME280;18301;51.076;17.046;2022-12-18T01:12:28;101888.91;;;-2.45;77.91
31717;BME280;18301;51.076;17.046;2022-12-18T01:17:29;101902.13;;;-2.40;76.89
31717;BME280;18301;51.076;17.046;2022-12-18T01:22:31;101902.06;;;-2.68;77.90
31717;BME280;18301;51.076;17.046;2022-12-18T01:27:33;101897.59;;;-2.72;78.28
31717;BME280;18301;51.076;17.046;2022-12-18T01:32:35;101901.22;;;-2.58;77.83
31717;BME280;18301;51.076;17.046;2022-12-18T01:37:36;101910.78;;;-2.78;78.08
31717;BME280;18301;51.076;17.046;2022-12-18T01:42:38;101910.00;;;-2.59;78.38
31717;BME280;18301;51.076;17.046;2022-12-18T01:47:48;101906.53;;;-2.51;78.04
31717;BME280;18301;51.076;17.046;2022-12-18T01:52:53;101905.59;;;-2.60;77.82
31717;BME280;18301;51.076;17.046;2022-12-18T01:57:58;101914.50;;;-2.42;78.57
31717;BME280;18301;51.076;17.046;2022-12-18T02:03:00;101921.56;;;-2.32;78.36
31717;BME280;18301;51.076;17.046;2022-12-18T02:14:00;101921.50;;;-2.50;76.78
31717;BME280;18301;51.076;17.046;2022-12-18T02:19:15;101925.91;;;-2.46;77.16
31717;BME280;18301;51.076;17.046;2022-12-18T02:29:51;101935.59;;;-2.51;78.02
31717;BME280;18301;51.076;17.046;2022-12-18T02:34:59;101940.94;;;-2.39;78.05
31717;BME280;18301;51.076;17.046;2022-12-18T02:40:04;101945.38;;;-2.37;77.79
31717;BME280;18301;51.076;17.046;2022-12-18T02:45:06;101955.06;;;-2.31;77.76
31717;BME280;18301;51.076;17.046;2022-12-18T02:50:12;101960.13;;;-2.77;77.40
31717;BME280;18301;51.076;17.046;2022-12-18T03:05:51;101948.06;;;-2.17;77.71
31717;BME280;18301;51.076;17.046;2022-12-18T03:11:01;101956.84;;;-2.28;77.15
31717;BME280;18301;51.076;17.046;2022-12-18T03:16:05;101958.63;;;-2.27;77.41
31717;BME280;18301;51.076;17.046;2022-12-18T03:21:09;101962.16;;;-2.21;77.54
31717;BME280;18301;51.076;17.046;2022-12-18T03:26:16;101960.38;;;-2.22;76.68
31717;BME280;18301;51.076;17.046;2022-12-18T03:31:20;101963.94;;;-2.14;77.23
31717;BME280;18301;51.076;17.046;2022-12-18T03:36:24;101962.22;;;-2.05;76.69
31717;BME280;18301;51.076;17.046;2022-12-18T03:41:29;101975.38;;;-2.24;77.11
31717;BME280;18301;51.076;17.046;2022-12-18T03:46:41;101977.09;;;-2.35;77.02
31717;BME280;18301;51.076;17.046;2022-12-18T03:52:06;101970.88;;;-2.40;77.44
31717;BME280;18301;51.076;17.046;2022-12-18T03:57:21;101989.44;;;-2.33;76.69
31717;BME280;18301;51.076;17.046;2022-12-18T04:02:24;101999.06;;;-2.48;76.97
31717;BME280;18301;51.076;17.046;2022-12-18T04:07:27;102005.13;;;-2.63;77.83
31717;BME280;18301;51.076;17.046;2022-12-18T04:12:29;101998.91;;;-2.68;77.41
31717;BME280;18301;51.076;17.046;2022-12-18T04:17:31;102007.81;;;-2.56;77.48
31717;BME280;18301;51.076;17.046;2022-12-18T04:22:32;102006.06;;;-2.53;77.62
31717;BME280;18301;51.076;17.046;2022-12-18T04:27:34;102018.34;;;-2.65;77.75
31717;BME280;18301;51.076;17.046;2022-12-18T04:32:36;102027.25;;;-2.44;77.70
31717;BME280;18301;51.076;17.046;2022-12-18T04:37:37;102016.78;;;-2.27;77.33
31717;BME280;18301;51.076;17.046;2022-12-18T04:42:39;102027.25;;;-2.44;77.14
31717;BME280;18301;51.076;17.046;2022-12-18T04:47:41;102031.63;;;-2.49;77.44
31717;BME280;18301;51.076;17.046;2022-12-18T04:52:43;102030.72;;;-2.53;77.30
31717;BME280;18301;51.076;17.046;2022-12-18T04:57:45;102048.22;;;-2.75;77.20
31717;BME280;18301;51.076;17.046;2022-12-18T05:02:47;102041.34;;;-2.51;76.69
31717;BME280;18301;51.076;17.046;2022-12-18T05:07:48;102044.81;;;-2.56;76.66
31717;BME280;18301;51.076;17.046;2022-12-18T05:12:50;102067.59;;;-2.73;76.43
31717;BME280;18301;51.076;17.046;2022-12-18T05:18:02;102064.97;;;-2.71;76.21
31717;BME280;18301;51.076;17.046;2022-12-18T05:23:04;102065.75;;;-2.86;75.40
31717;BME280;18301;51.076;17.046;2022-12-18T05:28:06;102066.59;;;-2.89;75.99
31717;BME280;18301;51.076;17.046;2022-12-18T05:33:07;102071.13;;;-2.74;76.81
31717;BME280;18301;51.076;17.046;2022-12-18T05:38:09;102084.38;;;-2.71;75.82
31717;BME280;18301;51.076;17.046;2022-12-18T05:43:10;102076.41;;;-2.77;76.12
31717;BME280;18301;51.076;17.046;2022-12-18T05:48:18;102084.16;;;-2.95;76.24
31717;BME280;18301;51.076;17.046;2022-12-18T05:53:20;102093.75;;;-3.02;76.23
31717;BME280;18301;51.076;17.046;2022-12-18T05:58:22;102102.53;;;-3.08;76.10
31717;BME280;18301;51.076;17.046;2022-12-18T06:03:23;102111.09;;;-3.30;77.27
31717;BME280;18301;51.076;17.046;2022-12-18T06:08:32;102108.69;;;-3.09;77.09
31717;BME280;18301;51.076;17.046;2022-12-18T06:13:33;102116.63;;;-3.06;77.20
31717;BME280;18301;51.076;17.046;2022-12-18T06:18:38;102122.94;;;-2.91;76.38
31717;BME280;18301;51.076;17.046;2022-12-18T06:23:39;102129.19;;;-2.83;75.73
31717;BME280;18301;51.076;17.046;2022-12-18T06:28:41;102133.63;;;-2.79;76.13
31717;BME280;18301;51.076;17.046;2022-12-18T06:33:43;102139.78;;;-2.80;74.87
31717;BME280;18301;51.076;17.046;2022-12-18T06:38:44;102139.66;;;-2.92;75.52
31717;BME280;18301;51.076;17.046;2022-12-18T06:43:46;102160.91;;;-2.83;76.56
31717;BME280;18301;51.076;17.046;2022-12-18T06:48:49;102162.78;;;-2.70;75.81
31717;BME280;18301;51.076;17.046;2022-12-18T06:53:51;102164.53;;;-2.69;75.42
31717;BME280;18301;51.076;17.046;2022-12-18T06:58:52;102162.72;;;-2.74;75.32
31717;BME280;18301;51.076;17.046;2022-12-18T07:03:55;102167.16;;;-2.73;75.62
31717;BME280;18301;51.076;17.046;2022-12-18T07:08:57;102173.44;;;-2.58;75.38
31717;BME280;18301;51.076;17.046;2022-12-18T07:13:58;102180.47;;;-2.60;75.13
31717;BME280;18301;51.076;17.046;2022-12-18T07:19:00;102187.47;;;-2.68;74.68
31717;BME280;18301;51.076;17.046;2022-12-18T07:24:01;102199.34;;;-3.10;75.48
31717;BME280;18301;51.076;17.046;2022-12-18T07:29:03;102196.00;;;-2.93;75.53
31717;BME280;18301;51.076;17.046;2022-12-18T07:34:04;102206.69;;;-2.81;75.33
31717;BME280;18301;51.076;17.046;2022-12-18T07:39:06;102213.78;;;-2.80;74.86
31717;BME280;18301;51.076;17.046;2022-12-18T07:44:10;102223.28;;;-2.94;75.46
31717;BME280;18301;51.076;17.046;2022-12-18T07:49:11;102225.91;;;-2.97;75.26
31717;BME280;18301;51.076;17.046;2022-12-18T07:54:13;102223.63;;;-3.41;75.91
31717;BME280;18301;51.076;17.046;2022-12-18T07:59:14;102223.81;;;-3.26;75.11
31717;BME280;18301;51.076;17.046;2022-12-18T08:04:16;102231.22;;;-2.94;75.51
31717;BME280;18301;51.076;17.046;2022-12-18T08:09:18;102234.81;;;-2.89;75.71
31717;BME280;18301;51.076;17.046;2022-12-18T08:14:19;102240.81;;;-3.04;76.12
31717;BME280;18301;51.076;17.046;2022-12-18T08:19:21;102241.16;;;-2.69;74.84
31717;BME280;18301;51.076;17.046;2022-12-18T08:24:22;102252.50;;;-2.82;74.84
31717;BME280;18301;51.076;17.046;2022-12-18T08:29:23;102264.56;;;-3.03;75.11
31717;BME280;18301;51.076;17.046;2022-12-18T08:34:25;102263.34;;;-2.53;74.74
31717;BME280;18301;51.076;17.046;2022-12-18T08:39:26;102275.44;;;-2.80;74.72
31717;BME280;18301;51.076;17.046;2022-12-18T08:44:28;102272.75;;;-2.81;74.61
31717;BME280;18301;51.076;17.046;2022-12-18T08:49:38;102271.09;;;-2.73;74.32
31717;BME280;18301;51.076;17.046;2022-12-18T08:54:40;102280.06;;;-2.56;74.70
31717;BME280;18301;51.076;17.046;2022-12-18T08:59:41;102275.72;;;-2.50;73.67
31717;BME280;18301;51.076;17.046;2022-12-18T09:04:43;102288.38;;;-2.16;73.77
31717;BME280;18301;51.076;17.046;2022-12-18T09:09:47;102287.47;;;-2.19;72.42
31717;BME280;18301;51.076;17.046;2022-12-18T09:14:48;102261.16;;;-2.04;71.87
31717;BME280;18301;51.076;17.046;2022-12-18T09:19:50;102258.47;;;-2.09;72.00
31717;BME280;18301;51.076;17.046;2022-12-18T09:24:51;102253.84;;;-2.34;72.09
31717;BME280;18301;51.076;17.046;2022-12-18T09:29:53;102234.28;;;-2.53;72.59
31717;BME280;18301;51.076;17.046;2022-12-18T09:34:54;102232.50;;;-2.54;73.49
31717;BME280;18301;51.076;17.046;2022-12-18T09:39:56;102224.78;;;-2.28;72.86
31717;BME280;18301;51.076;17.046;2022-12-18T09:44:58;102220.91;;;-2.70;73.49
31717;BME280;18301;51.076;17.046;2022-12-18T09:50:13;102221.16;;;-2.45;72.52
31717;BME280;18301;51.076;17.046;2022-12-18T09:55:29;102220.94;;;-2.67;72.92
31717;BME280;18301;51.076;17.046;2022-12-18T10:00:38;102224.69;;;-2.40;72.68
31717;BME280;18301;51.076;17.046;2022-12-18T10:10:52;102228.00;;;-2.63;72.88
31717;BME280;18301;51.076;17.046;2022-12-18T10:16:03;102241.41;;;-2.44;72.69
31717;BME280;18301;51.076;17.046;2022-12-18T10:21:16;102239.47;;;-2.62;72.53
31717;BME280;18301;51.076;17.046;2022-12-18T10:26:19;102243.78;;;-2.72;73.72
31717;BME280;18301;51.076;17.046;2022-12-18T10:31:23;102253.69;;;-2.49;73.13
31717;BME280;18301;51.076;17.046;2022-12-18T10:36:25;102245.66;;;-2.62;73.35
31717;BME280;18301;51.076;17.046;2022-12-18T10:41:27;102237.75;;;-2.59;73.16
31717;BME280;18301;51.076;17.046;2022-12-18T10:46:29;102234.38;;;-2.41;73.04
31717;BME280;18301;51.076;17.046;2022-12-18T10:51:33;102231.38;;;-2.79;74.74
31717;BME280;18301;51.076;17.046;2022-12-18T10:56:36;102224.41;;;-2.74;74.24
31717;BME280;18301;51.076;17.046;2022-12-18T11:01:53;102236.16;;;-2.41;72.04
31717;BME280;18301;51.076;17.046;2022-12-18T11:07:07;102230.03;;;-2.34;72.59
31717;BME280;18301;51.076;17.046;2022-12-18T11:12:17;102251.41;;;-2.10;72.97
31717;BME280;18301;51.076;17.046;2022-12-18T11:17:21;102257.47;;;-2.24;72.35
31717;BME280;18301;51.076;17.046;2022-12-18T11:22:30;102251.34;;;-2.16;72.29
31717;BME280;18301;51.076;17.046;2022-12-18T11:27:32;102269.66;;;-2.37;72.33
31717;BME280;18301;51.076;17.046;2022-12-18T11:32:37;102275.06;;;-2.25;73.25
31717;BME280;18301;51.076;17.046;2022-12-18T11:37:41;102256.13;;;-2.74;73.46
31717;BME280;18301;51.076;17.046;2022-12-18T11:42:50;102257.28;;;-2.44;73.34
31717;BME280;18301;51.076;17.046;2022-12-18T11:48:28;102244.16;;;-2.32;72.63
31717;BME280;18301;51.076;17.046;2022-12-18T11:53:31;102244.28;;;-2.20;71.65
31717;BME280;18301;51.076;17.046;2022-12-18T12:04:16;102235.09;;;-2.59;73.08
31717;BME280;18301;51.076;17.046;2022-12-18T12:09:44;102238.03;;;-2.28;72.95
31717;BME280;18301;51.076;17.046;2022-12-18T12:15:10;102238.78;;;-2.41;72.77
31717;BME280;18301;51.076;17.046;2022-12-18T12:20:36;102238.00;;;-2.33;72.25
31717;BME280;18301;51.076;17.046;2022-12-18T12:25:44;102229.28;;;-2.21;72.30
31717;BME280;18301;51.076;17.046;2022-12-18T12:30:57;102232.06;;;-2.02;71.64
31717;BME280;18301;51.076;17.046;2022-12-18T12:36:08;102225.00;;;-2.00;71.65
31717;BME280;18301;51.076;17.046;2022-12-18T12:41:14;102224.13;;;-2.02;71.15
31717;BME280;18301;51.076;17.046;2022-12-18T12:46:40;102219.47;;;-2.36;71.99
31717;BME280;18301;51.076;17.046;2022-12-18T12:52:00;102223.09;;;-2.23;72.83
31717;BME280;18301;51.076;17.046;2022-12-18T12:57:19;102225.94;;;-2.00;71.01
31717;BME280;18301;51.076;17.046;2022-12-18T13:07:57;102233.47;;;-2.44;72.84
31717;BME280;18301;51.076;17.046;2022-12-18T13:13:11;102227.38;;;-2.39;72.78
31717;BME280;18301;51.076;17.046;2022-12-18T13:18:24;102229.66;;;-2.77;73.25
31717;BME280;18301;51.076;17.046;2022-12-18T13:23:32;102232.28;;;-2.77;73.38
31717;BME280;18301;51.076;17.046;2022-12-18T13:33:48;102212.94;;;-2.71;73.28
31717;BME280;18301;51.076;17.046;2022-12-18T13:49:41;102252.63;;;-2.70;74.08
31717;BME280;18301;51.076;17.046;2022-12-18T13:54:49;102257.09;;;-2.64;73.89
31717;BME280;18301;51.076;17.046;2022-12-18T13:59:52;102261.28;;;-2.83;74.00
31717;BME280;18301;51.076;17.046;2022-12-18T14:04:54;102259.78;;;-2.58;73.53
31717;BME280;18301;51.076;17.046;2022-12-18T14:09:57;102266.81;;;-2.62;73.78
31717;BME280;18301;51.076;17.046;2022-12-18T14:20:31;102277.34;;;-2.65;73.92
31717;BME280;18301;51.076;17.046;2022-12-18T14:25:32;102282.72;;;-2.52;73.65
31717;BME280;18301;51.076;17.046;2022-12-18T14:30:42;102289.38;;;-2.91;74.13
31717;BME280;18301;51.076;17.046;2022-12-18T14:35:57;102296.69;;;-2.66;73.91
31717;BME280;18301;51.076;17.046;2022-12-18T14:46:34;102295.22;;;-3.17;74.32
31717;BME280;18301;51.076;17.046;2022-12-18T14:51:36;102301.16;;;-3.33;75.08
31717;BME280;18301;51.076;17.046;2022-12-18T14:56:44;102301.22;;;-3.27;75.28
31717;BME280;18301;51.076;17.046;2022-12-18T15:12:32;102279.44;;;-3.75;76.04
31717;BME280;18301;51.076;17.046;2022-12-18T15:17:34;102290.03;;;-3.72;76.08
31717;BME280;18301;51.076;17.046;2022-12-18T15:22:36;102291.06;;;-3.62;75.90
31717;BME280;18301;51.076;17.046;2022-12-18T15:27:38;102296.69;;;-3.37;75.82
31717;BME280;18301;51.076;17.046;2022-12-18T15:32:39;102299.25;;;-3.42;75.33
31717;BME280;18301;51.076;17.046;2022-12-18T15:37:42;102307.59;;;-3.75;75.24
31717;BME280;18301;51.076;17.046;2022-12-18T15:42:44;102294.25;;;-3.83;75.81
31717;BME280;18301;51.076;17.046;2022-12-18T15:48:18;102275.88;;;-3.78;75.67
31717;BME280;18301;51.076;17.046;2022-12-18T15:53:21;102265.03;;;-3.97;76.30
31717;BME280;18301;51.076;17.046;2022-12-18T15:58:23;102270.16;;;-4.06;76.72
31717;BME280;18301;51.076;17.046;2022-12-18T16:03:24;102250.00;;;-4.02;76.09
31717;BME280;18301;51.076;17.046;2022-12-18T16:08:26;102244.81;;;-3.96;76.51
31717;BME280;18301;51.076;17.046;2022-12-18T16:13:27;102243.16;;;-3.89;76.20
31717;BME280;18301;51.076;17.046;2022-12-18T16:18:29;102254.31;;;-4.09;76.88
31717;BME280;18301;51.076;17.046;2022-12-18T16:23:30;102249.91;;;-4.08;76.48
31717;BME280;18301;51.076;17.046;2022-12-18T16:28:32;102254.25;;;-4.10;76.65
31717;BME280;18301;51.076;17.046;2022-12-18T16:33:33;102236.03;;;-3.97;76.11
31717;BME280;18301;51.076;17.046;2022-12-18T16:38:35;102235.91;;;-4.04;75.76
31717;BME280;18301;51.076;17.046;2022-12-18T16:43:36;102240.81;;;-4.27;75.13
31717;BME280;18301;51.076;17.046;2022-12-18T16:48:38;102234.25;;;-4.51;75.97
31717;BME280;18301;51.076;17.046;2022-12-18T16:53:40;102243.09;;;-4.49;75.79
31717;BME280;18301;51.076;17.046;2022-12-18T16:58:42;102243.69;;;-4.62;75.90
31717;BME280;18301;51.076;17.046;2022-12-18T17:03:50;102243.53;;;-4.71;75.68
31717;BME280;18301;51.076;17.046;2022-12-18T17:09:13;102246.03;;;-4.79;76.20
31717;BME280;18301;51.076;17.046;2022-12-18T17:14:18;102260.03;;;-4.81;76.49
31717;BME280;18301;51.076;17.046;2022-12-18T17:19:20;102259.84;;;-4.91;75.77
31717;BME280;18301;51.076;17.046;2022-12-18T17:24:22;102259.69;;;-5.00;76.52
31717;BME280;18301;51.076;17.046;2022-12-18T17:29:23;102247.63;;;-4.89;76.61
31717;BME280;18301;51.076;17.046;2022-12-18T17:34:25;102251.97;;;-4.91;75.89
31717;BME280;18301;51.076;17.046;2022-12-18T17:39:26;102261.19;;;-5.13;76.67
31717;BME280;18301;51.076;17.046;2022-12-18T17:44:28;102260.22;;;-5.16;76.57
31717;BME280;18301;51.076;17.046;2022-12-18T17:49:30;102252.28;;;-5.19;76.51
31717;BME280;18301;51.076;17.046;2022-12-18T17:54:32;102253.72;;;-5.34;76.82
31717;BME280;18301;51.076;17.046;2022-12-18T17:59:33;102255.72;;;-5.23;76.80
31717;BME280;18301;51.076;17.046;2022-12-18T18:04:35;102256.47;;;-5.29;76.65
31717;BME280;18301;51.076;17.046;2022-12-18T18:09:36;102260.31;;;-5.13;76.06
31717;BME280;18301;51.076;17.046;2022-12-18T18:14:38;102272.63;;;-5.51;77.09
31717;BME280;18301;51.076;17.046;2022-12-18T18:19:39;102264.94;;;-5.42;76.79
31717;BME280;18301;51.076;17.046;2022-12-18T18:24:43;102260.19;;;-5.60;77.13
31717;BME280;18301;51.076;17.046;2022-12-18T18:29:45;102239.22;;;-5.56;76.98
31717;BME280;18301;51.076;17.046;2022-12-18T18:34:46;102240.84;;;-5.62;77.15
31717;BME280;18301;51.076;17.046;2022-12-18T18:39:48;102236.16;;;-5.75;76.87
31717;BME280;18301;51.076;17.046;2022-12-18T18:44:49;102239.63;;;-5.78;76.60
31717;BME280;18301;51.076;17.046;2022-12-18T18:49:51;102240.31;;;-5.85;76.63
31717;BME280;18301;51.076;17.046;2022-12-18T18:54:52;102247.22;;;-5.89;76.91
31717;BME280;18301;51.076;17.046;2022-12-18T19:00:13;102257.81;;;-5.87;76.89
31717;BME280;18301;51.076;17.046;2022-12-18T19:05:15;102248.94;;;-5.94;76.88
31717;BME280;18301;51.076;17.046;2022-12-18T19:10:17;102240.91;;;-6.00;76.61
31717;BME280;18301;51.076;17.046;2022-12-18T19:15:18;102249.75;;;-5.95;76.01
31717;BME280;18301;51.076;17.046;2022-12-18T19:20:20;102262.59;;;-6.07;76.58
31717;BME280;18301;51.076;17.046;2022-12-18T19:25:23;102258.78;;;-6.21;76.38
31717;BME280;18301;51.076;17.046;2022-12-18T19:30:40;102253.28;;;-6.31;76.77
31717;BME280;18301;51.076;17.046;2022-12-18T19:35:41;102248.56;;;-6.09;76.63
31717;BME280;18301;51.076;17.046;2022-12-18T19:40:43;102242.31;;;-6.13;76.26
31717;BME280;18301;51.076;17.046;2022-12-18T19:45:45;102233.47;;;-6.16;76.22
31717;BME280;18301;51.076;17.046;2022-12-18T19:50:47;102225.94;;;-6.03;75.58
31717;BME280;18301;51.076;17.046;2022-12-18T19:55:48;102239.06;;;-6.39;75.76
31717;BME280;18301;51.076;17.046;2022-12-18T20:00:50;102226.16;;;-6.30;75.35
31717;BME280;18301;51.076;17.046;2022-12-18T20:05:51;102225.78;;;-6.43;75.91
31717;BME280;18301;51.076;17.046;2022-12-18T20:10:53;102224.16;;;-6.40;75.30
31717;BME280;18301;51.076;17.046;2022-12-18T20:15:54;102225.84;;;-6.42;75.29
31717;BME280;18301;51.076;17.046;2022-12-18T20:20:56;102214.72;;;-6.32;75.11
31717;BME280;18301;51.076;17.046;2022-12-18T20:26:00;102224.31;;;-6.34;75.66
31717;BME280;18301;51.076;17.046;2022-12-18T20:31:03;102225.00;;;-6.41;75.47
31717;BME280;18301;51.076;17.046;2022-12-18T20:36:09;102225.03;;;-6.39;75.52
31717;BME280;18301;51.076;17.046;2022-12-18T20:41:19;102217.97;;;-6.42;75.25
31717;BME280;18301;51.076;17.046;2022-12-18T20:46:21;102208.31;;;-6.43;75.52
31717;BME280;18301;51.076;17.046;2022-12-18T20:51:22;102209.75;;;-6.19;75.00
31717;BME280;18301;51.076;17.046;2022-12-18T20:56:24;102220.13;;;-6.26;74.53
31717;BME280;18301;51.076;17.046;2022-12-18T21:01:28;102218.69;;;-6.49;73.77
31717;BME280;18301;51.076;17.046;2022-12-18T21:06:30;102217.97;;;-6.42;74.39
31717;BME280;18301;51.076;17.046;2022-12-18T21:11:32;102226.09;;;-6.67;74.65
31717;BME280;18301;51.076;17.046;2022-12-18T21:16:53;102217.34;;;-6.66;75.03
31717;BME280;18301;51.076;17.046;2022-12-18T21:21:55;102222.50;;;-6.71;74.74
31717;BME280;18301;51.076;17.046;2022-12-18T21:26:59;102226.91;;;-6.68;74.11
31717;BME280;18301;51.076;17.046;2022-12-18T21:32:02;102222.28;;;-6.79;74.41
31717;BME280;18301;51.076;17.046;2022-12-18T21:37:04;102211.91;;;-6.74;74.09
31717;BME280;18301;51.076;17.046;2022-12-18T21:42:05;102206.38;;;-6.85;74.92
31717;BME280;18301;51.076;17.046;2022-12-18T21:47:25;102199.75;;;-6.70;75.07
31717;BME280;18301;51.076;17.046;2022-12-18T21:52:27;102186.94;;;-6.58;74.91
31717;BME280;18301;51.076;17.046;2022-12-18T21:57:33;102176.50;;;-6.55;74.77
31717;BME280;18301;51.076;17.046;2022-12-18T22:02:34;102163.38;;;-6.55;74.83
31717;BME280;18301;51.076;17.046;2022-12-18T22:07:36;102151.06;;;-6.56;74.77
31717;BME280;18301;51.076;17.046;2022-12-18T22:12:37;102151.00;;;-6.59;74.81
31717;BME280;18301;51.076;17.046;2022-12-18T22:17:44;102149.59;;;-6.45;74.45
31717;BME280;18301;51.076;17.046;2022-12-18T22:22:47;102141.75;;;-6.80;74.84
31717;BME280;18301;51.076;17.046;2022-12-18T22:27:48;102133.91;;;-6.78;75.01
31717;BME280;18301;51.076;17.046;2022-12-18T22:33:08;102143.03;;;-6.62;75.08
31717;BME280;18301;51.076;17.046;2022-12-18T22:38:10;102146.50;;;-6.65;75.28
31717;BME280;18301;51.076;17.046;2022-12-18T22:43:12;102132.69;;;-6.56;74.66
31717;BME280;18301;51.076;17.046;2022-12-18T22:48:13;102121.44;;;-6.52;74.52
31717;BME280;18301;51.076;17.046;2022-12-18T22:53:16;102113.50;;;-6.54;74.48
31717;BME280;18301;51.076;17.046;2022-12-18T22:58:18;102098.19;;;-6.72;74.32
31717;BME280;18301;51.076;17.046;2022-12-18T23:03:19;102093.69;;;-6.77;74.82
31717;BME280;18301;51.076;17.046;2022-12-18T23:08:21;102090.09;;;-6.81;74.98
31717;BME280;18301;51.076;17.046;2022-12-18T23:13:22;102078.75;;;-6.80;74.79
31717;BME280;18301;51.076;17.046;2022-12-18T23:18:24;102093.41;;;-6.89;75.64
31717;BME280;18301;51.076;17.046;2022-12-18T23:23:25;102082.13;;;-6.84;74.68
31717;BME280;18301;51.076;17.046;2022-12-18T23:28:27;102084.53;;;-6.93;75.62
31717;BME280;18301;51.076;17.046;2022-12-18T23:33:30;102086.72;;;-6.75;75.03
31717;BME280;18301;51.076;17.046;2022-12-18T23:38:33;102071.41;;;-6.93;74.50
31717;BME280;18301;51.076;17.046;2022-12-18T23:43:35;102060.75;;;-7.01;74.70
31717;BME280;18301;51.076;17.046;2022-12-18T23:48:37;102066.50;;;-7.15;75.34
31717;BME280;18301;51.076;17.046;2022-12-18T23:53:39;102047.53;;;-7.04;74.46
31717;BME280;18301;51.076;17.046;2022-12-18T23:58:41;102054.47;;;-7.07;75.01
